Time;durP1;ratioP1;P1;durP2;ratioP2;P2;SDS_P1;SDS_P2;PMS_P1;PMS_P2;Temp;Humidity;BMP_temperature;BMP_pressure;BME280_temperature;BME280_humidity;BME280_pressure;Samples;Min_cycle;Max_cycle;Signal;HPM_P1;HPM_P2
2024/01/26 00:02:01;;;;;;;;;4.75;4.75;;;;;-143.90;100.00;76557.63;4852408;28;102006;-72
2024/01/26 00:04:28;;;;;;;;;6.75;5.75;;;;;-143.90;100.00;76561.75;4845050;28;103986;-72
2024/01/26 00:06:55;;;;;;;;;8.25;6.00;;;;;-143.90;100.00;76570.03;4838423;28;102128;-72
2024/01/26 00:09:22;;;;;;;;;9.75;7.50;;;;;-143.90;100.00;76574.16;4839414;28;102929;-71
2024/01/26 00:11:49;;;;;;;;;7.75;7.00;;;;;-143.90;100.00;76572.09;4835940;28;106447;-71
2024/01/26 00:14:15;;;;;;;;;11.00;5.50;;;;;-143.90;100.00;76576.22;4830222;28;108416;-72
2024/01/26 00:16:42;;;;;;;;;10.50;7.00;;;;;-143.90;100.00;76578.31;4831573;28;105447;-71
2024/01/26 00:19:09;;;;;;;;;12.75;10.75;;;;;-143.90;100.00;76582.44;4846128;28;102407;-71
2024/01/26 00:21:36;;;;;;;;;12.50;12.25;;;;;-143.90;100.00;76582.44;4850622;28;102305;-71
2024/01/26 00:24:04;;;;;;;;;12.75;11.00;;;;;-143.90;100.00;76598.97;4845857;28;104053;-71
2024/01/26 00:26:31;;;;;;;;;18.75;16.75;;;;;-143.90;100.00;76594.84;4853060;28;101999;-70
2024/01/26 00:28:57;;;;;;;;;18.25;16.75;;;;;-143.90;100.00;76596.91;4835885;28;102639;-71
2024/01/26 00:31:24;;;;;;;;;19.25;17.50;;;;;-143.90;100.00;76605.19;4852885;28;102700;-71
2024/01/26 00:33:51;;;;;;;;;22.25;18.25;;;;;-143.90;100.00;76598.97;4847921;28;104164;-72
2024/01/26 00:36:18;;;;;;;;;21.00;17.75;;;;;-143.90;100.00;76603.13;4852035;28;102335;-71
2024/01/26 00:38:45;;;;;;;;;23.00;18.00;;;;;-143.90;100.00;76598.97;4846291;28;102127;-71
2024/01/26 00:41:11;;;;;;;;;28.00;23.50;;;;;-143.90;100.00;76598.97;4844824;28;102456;-72
2024/01/26 00:43:38;;;;;;;;;24.25;22.50;;;;;-143.90;100.00;76601.03;4849504;28;104059;-71
2024/01/26 00:46:05;;;;;;;;;26.25;23.25;;;;;-143.90;100.00;76601.03;4847259;28;102138;-71
2024/01/26 00:48:31;;;;;;;;;22.25;20.25;;;;;-143.90;100.00;76601.03;4839625;28;102219;-70
2024/01/26 00:50:59;;;;;;;;;17.75;15.00;;;;;-143.90;100.00;76605.19;4827625;28;102517;-70
2024/01/26 00:53:25;;;;;;;;;24.00;18.00;;;;;-143.90;100.00;76611.38;4828101;28;104027;-70
2024/01/26 00:55:52;;;;;;;;;21.00;16.00;;;;;-143.90;100.00;76598.97;4825474;28;101942;-71
2024/01/26 00:58:19;;;;;;;;;20.25;18.50;;;;;-143.90;100.00;76603.13;4832492;28;102629;-71
2024/01/26 01:00:46;;;;;;;;;22.50;19.00;;;;;-143.90;100.00;76623.78;4819542;28;103438;-71
2024/01/26 01:03:12;;;;;;;;;17.75;13.50;;;;;-143.90;100.00;76623.78;4824205;28;104109;-71
2024/01/26 01:05:40;;;;;;;;;14.75;11.50;;;;;-143.90;100.00;76634.13;4826937;28;102570;-72
2024/01/26 01:08:06;;;;;;;;;14.75;12.75;;;;;-143.90;100.00;76636.22;4831541;28;102600;-71
2024/01/26 01:10:33;;;;;;;;;11.25;10.00;;;;;-143.90;100.00;76636.22;4810722;28;102829;-71
2024/01/26 01:12:59;;;;;;;;;9.75;9.75;;;;;-143.90;100.00;76642.41;4816025;28;104223;-71
2024/01/26 01:15:26;;;;;;;;;7.50;6.25;;;;;-143.90;100.00;76642.41;4824499;28;103411;-71
2024/01/26 01:17:53;;;;;;;;;6.00;6.00;;;;;-143.90;100.00;76640.34;4826960;28;102509;-70
2024/01/26 01:20:20;;;;;;;;;10.00;6.25;;;;;-143.90;100.00;76646.53;4823160;28;104364;-71
2024/01/26 01:22:47;;;;;;;;;8.00;7.00;;;;;-143.90;100.00;76652.75;4821692;28;108704;-72
2024/01/26 01:25:14;;;;;;;;;7.00;7.00;;;;;-143.90;100.00;76654.81;4822117;28;102167;-71
2024/01/26 01:27:41;;;;;;;;;8.00;7.00;;;;;-143.90;100.00;76656.88;4829153;28;103857;-71
2024/01/26 01:30:09;;;;;;;;;10.00;7.00;;;;;-143.90;100.00;76652.75;4831438;28;104311;-71
2024/01/26 01:32:36;;;;;;;;;13.25;11.00;;;;;-143.90;100.00;76654.81;4824082;28;107527;-70
2024/01/26 01:35:03;;;;;;;;;16.50;10.25;;;;;-143.90;100.00;76654.81;4815555;28;102450;-71
2024/01/26 01:37:30;;;;;;;;;9.25;5.75;;;;;-143.90;100.00;76658.97;4824362;28;102425;-70
2024/01/26 01:39:56;;;;;;;;;9.25;9.00;;;;;-143.90;100.00;76656.88;4828323;28;103042;-70
2024/01/26 01:42:23;;;;;;;;;14.75;10.75;;;;;-143.90;100.00;76652.75;4823954;28;104052;-70
2024/01/26 01:44:49;;;;;;;;;18.75;13.75;;;;;-143.90;100.00;76658.97;4819918;28;102459;-70
2024/01/26 01:47:16;;;;;;;;;11.50;10.25;;;;;-143.90;100.00;76648.63;4823362;28;104044;-71
2024/01/26 01:49:43;;;;;;;;;10.75;10.25;;;;;-143.90;100.00;76646.53;4825985;28;102456;-72
2024/01/26 01:52:15;;;;;;;;;11.50;11.50;;;;;-143.90;100.00;76652.75;4822166;28;104007;-71
2024/01/26 01:54:42;;;;;;;;;11.50;10.00;;;;;-143.90;100.00;76644.47;4823220;28;102521;-72
2024/01/26 01:57:16;;;;;;;;;18.00;14.00;;;;;-143.90;100.00;76646.53;4817580;28;102339;-71
2024/01/26 01:59:43;;;;;;;;;12.00;12.00;;;;;-143.90;100.00;76644.47;4826882;28;102240;-71
2024/01/26 02:02:09;;;;;;;;;17.25;16.00;;;;;-143.90;100.00;76646.53;4812157;28;104146;-71
2024/01/26 02:04:36;;;;;;;;;14.00;13.75;;;;;-143.90;100.00;76648.63;4821238;28;102412;-72
2024/01/26 02:07:04;;;;;;;;;17.50;15.00;;;;;-143.90;100.00;76652.75;4812869;28;102831;-71
2024/01/26 02:09:31;;;;;;;;;13.75;10.00;;;;;-143.90;100.00;76642.41;4822481;28;102143;-72
2024/01/26 02:11:59;;;;;;;;;13.00;8.00;;;;;-143.90;100.00;76648.63;4823376;28;104080;-70
2024/01/26 02:14:26;;;;;;;;;9.75;6.75;;;;;-143.90;100.00;76652.75;4824308;28;102606;-70
2024/01/26 02:16:57;;;;;;;;;6.75;5.50;;;;;-143.90;100.00;76652.75;4822055;28;102407;-71
2024/01/26 02:19:26;;;;;;;;;6.00;2.00;;;;;-143.90;100.00;76656.88;4827498;28;102459;-72
2024/01/26 02:21:53;;;;;;;;;7.25;5.00;;;;;-143.90;100.00;76654.81;4821638;28;104185;-71
2024/01/26 02:24:20;;;;;;;;;5.00;3.00;;;;;-143.90;100.00;76658.97;4826193;28;104259;-70
2024/01/26 02:26:47;;;;;;;;;5.50;5.00;;;;;-143.90;100.00;76665.16;4814030;28;102882;-71
2024/01/26 02:29:14;;;;;;;;;6.00;3.50;;;;;-143.90;100.00;76665.16;4821381;28;102500;-70
2024/01/26 02:31:40;;;;;;;;;6.00;5.00;;;;;-143.90;100.00;76665.16;4822449;28;103888;-71
2024/01/26 02:34:10;;;;;;;;;5.00;4.00;;;;;-143.90;100.00;76658.97;4822552;28;102641;-70
2024/01/26 02:36:38;;;;;;;;;4.50;3.00;;;;;-143.90;100.00;76663.09;4828128;28;102564;-70
2024/01/26 02:39:05;;;;;;;;;5.75;5.00;;;;;-143.90;100.00;76667.22;4817249;28;102633;-70
2024/01/26 02:41:34;;;;;;;;;6.25;4.50;;;;;-143.90;100.00;76667.22;4825265;28;104440;-71
2024/01/26 02:44:01;;;;;;;;;4.75;3.50;;;;;-143.90;100.00;76669.28;4823922;28;102106;-71
2024/01/26 02:46:28;;;;;;;;;5.00;3.00;;;;;-143.90;100.00;76652.75;4827254;28;102022;-71
2024/01/26 02:48:55;;;;;;;;;7.00;5.50;;;;;-143.90;100.00;76665.16;4817676;28;102020;-70
2024/01/26 02:51:22;;;;;;;;;5.50;4.00;;;;;-143.90;100.00;76669.28;4829486;28;104021;-71
2024/01/26 02:53:49;;;;;;;;;5.75;5.25;;;;;-143.90;100.00;76661.03;4833472;28;102507;-71
2024/01/26 02:56:15;;;;;;;;;4.00;2.00;;;;;-143.90;100.00;76661.03;4823879;28;101951;-72
2024/01/26 02:58:42;;;;;;;;;6.00;3.00;;;;;-143.90;100.00;76673.44;4830808;28;102596;-72
2024/01/26 03:01:09;;;;;;;;;2.50;1.25;;;;;-143.90;100.00;76673.44;4798039;28;103877;-71
2024/01/26 03:03:36;;;;;;;;;3.00;3.00;;;;;-143.90;100.00;76665.16;4824716;28;102386;-71
2024/01/26 03:06:05;;;;;;;;;4.75;2.50;;;;;-143.90;100.00;76677.56;4828892;28;102802;-71
2024/01/26 03:08:32;;;;;;;;;3.50;2.25;;;;;-143.90;100.00;76675.50;4827519;28;102618;-71
2024/01/26 03:10:59;;;;;;;;;5.00;4.00;;;;;-143.90;100.00;76671.38;4817944;28;104144;-70
2024/01/26 03:13:25;;;;;;;;;6.00;5.00;;;;;-143.90;100.00;76677.56;4837485;28;102480;-70
2024/01/26 03:15:52;;;;;;;;;3.00;3.00;;;;;-143.90;100.00;76681.72;4829343;28;102356;-70
2024/01/26 03:18:19;;;;;;;;;6.25;3.00;;;;;-143.90;100.00;76687.91;4831099;28;102534;-70
2024/01/26 03:20:46;;;;;;;;;3.00;3.00;;;;;-143.90;100.00;76689.97;4823952;28;103972;-71
2024/01/26 03:23:13;;;;;;;;;6.75;3.00;;;;;-143.90;100.00;76689.97;4805713;28;102237;-70
2024/01/26 03:25:40;;;;;;;;;6.25;5.00;;;;;-143.90;100.00;76687.91;4821632;28;102412;-70
2024/01/26 03:28:07;;;;;;;;;3.50;3.00;;;;;-143.90;100.00;76694.13;4829586;28;102405;-71
2024/01/26 03:30:34;;;;;;;;;5.00;3.00;;;;;-143.90;100.00;76692.03;4826279;28;104063;-70
2024/01/26 03:33:01;;;;;;;;;5.00;3.00;;;;;-143.90;100.00;76698.25;4816332;28;105288;-71
2024/01/26 03:35:28;;;;;;;;;4.50;3.00;;;;;-143.90;100.00;76702.38;4826657;28;105164;-70
2024/01/26 03:37:55;;;;;;;;;3.00;1.75;;;;;-143.90;100.00;76694.13;4833637;28;101977;-71
2024/01/26 03:40:24;;;;;;;;;5.75;3.00;;;;;-143.90;100.00;76702.38;4831428;28;104163;-71
2024/01/26 03:42:51;;;;;;;;;6.50;5.50;;;;;-143.90;100.00;76704.47;4825715;28;102357;-71
2024/01/26 03:45:18;;;;;;;;;2.00;2.00;;;;;-143.90;100.00;76706.53;4828902;28;102643;-70
2024/01/26 03:47:45;;;;;;;;;5.25;2.75;;;;;-143.90;100.00;76710.66;4828852;28;102444;-72
2024/01/26 03:50:12;;;;;;;;;4.00;3.00;;;;;-143.90;100.00;76714.78;4829746;28;103828;-71
2024/01/26 03:52:39;;;;;;;;;6.00;4.50;;;;;-143.90;100.00;76712.72;4832498;28;102309;-71
2024/01/26 03:55:07;;;;;;;;;3.00;2.75;;;;;-143.90;100.00;76718.94;4820002;28;104202;-71
2024/01/26 03:57:35;;;;;;;;;2.75;2.00;;;;;-143.90;100.00;76727.22;4829403;28;102351;-71
2024/01/26 04:00:06;;;;;;;;;4.50;2.75;;;;;-143.90;100.00;76723.06;4830411;28;104166;-71
2024/01/26 04:02:32;;;;;;;;;3.00;2.50;;;;;-143.90;100.00;76723.06;4832215;28;102645;-71
2024/01/26 04:04:59;;;;;;;;;5.25;3.00;;;;;-143.90;100.00;76723.06;4802359;29;102530;-69
2024/01/26 04:07:26;;;;;;;;;6.00;3.00;;;;;-143.90;100.00;76735.47;4829327;28;102666;-71
2024/01/26 04:09:52;;;;;;;;;2.50;1.00;;;;;-143.90;100.00;76731.34;4828680;28;104066;-71
2024/01/26 04:12:19;;;;;;;;;4.25;3.50;;;;;-143.90;100.00;76735.47;4829634;28;103343;-70
2024/01/26 04:14:46;;;;;;;;;6.75;4.75;;;;;-143.90;100.00;76731.34;4822853;28;105606;-72
2024/01/26 04:17:13;;;;;;;;;3.00;3.00;;;;;-143.90;100.00;76737.53;4824528;28;101996;-72
2024/01/26 04:19:40;;;;;;;;;3.25;2.00;;;;;-143.90;100.00;76737.53;4828843;28;104104;-72
2024/01/26 04:22:06;;;;;;;;;3.75;2.50;;;;;-143.90;100.00;76735.47;4829290;28;102037;-70
2024/01/26 04:24:36;;;;;;;;;2.25;2.00;;;;;-143.90;100.00;76735.47;4817788;28;101852;-71
2024/01/26 04:27:03;;;;;;;;;6.25;3.50;;;;;-143.90;100.00;76745.81;4807027;28;103625;-70
2024/01/26 04:29:29;;;;;;;;;5.25;4.50;;;;;-143.90;100.00;76743.75;4815289;28;104624;-72
2024/01/26 04:31:56;;;;;;;;;2.75;2.00;;;;;-143.90;100.00;76747.88;4829664;28;102299;-72
2024/01/26 04:34:23;;;;;;;;;6.00;5.25;;;;;-143.90;100.00;76752.03;4829479;28;102451;-71
2024/01/26 04:36:50;;;;;;;;;6.25;4.00;;;;;-143.90;100.00;76752.03;4826645;28;102508;-71
2024/01/26 04:39:16;;;;;;;;;1.25;0.50;;;;;-143.90;100.00;76764.44;4824406;28;108994;-70
2024/01/26 04:41:43;;;;;;;;;2.75;2.75;;;;;-143.90;100.00;76760.28;4829859;28;102022;-70
2024/01/26 04:44:10;;;;;;;;;4.75;3.00;;;;;-143.90;100.00;76758.22;4825621;28;102574;-70
2024/01/26 04:46:37;;;;;;;;;2.00;2.00;;;;;-143.90;100.00;76774.78;4828339;28;102259;-70
2024/01/26 04:49:04;;;;;;;;;5.00;3.00;;;;;-143.90;100.00;76760.28;4817383;28;104407;-71
2024/01/26 04:51:31;;;;;;;;;4.00;3.00;;;;;-143.90;100.00;76768.56;4826640;28;101959;-72
2024/01/26 04:53:57;;;;;;;;;8.00;5.00;;;;;-143.90;100.00;76766.50;4843579;28;102360;-72
2024/01/26 04:56:24;;;;;;;;;3.25;3.25;;;;;-143.90;100.00;76766.50;4843822;28;102212;-71
2024/01/26 04:58:51;;;;;;;;;4.50;3.00;;;;;-143.90;100.00;76768.56;4840769;28;104124;-71
2024/01/26 05:01:17;;;;;;;;;8.25;6.00;;;;;-143.90;100.00;76768.56;4845322;28;102444;-71
2024/01/26 05:03:44;;;;;;;;;6.00;4.25;;;;;-143.90;100.00;76772.72;4850907;28;101958;-72
2024/01/26 05:06:11;;;;;;;;;6.00;5.00;;;;;-143.90;100.00;76778.91;4845465;28;102355;-70
2024/01/26 05:08:38;;;;;;;;;3.75;2.00;;;;;-143.90;100.00;76770.63;4849167;28;104101;-70
2024/01/26 05:11:05;;;;;;;;;7.00;3.00;;;;;-143.90;100.00;76780.97;4838382;28;102676;-70
2024/01/26 05:13:32;;;;;;;;;4.50;3.00;;;;;-143.90;100.00;76785.13;4849818;28;102018;-70
2024/01/26 05:15:58;;;;;;;;;8.75;5.00;;;;;-143.90;100.00;76793.38;4846463;28;101948;-71
2024/01/26 05:18:25;;;;;;;;;8.00;6.00;;;;;-143.90;100.00;76789.25;4845335;28;104184;-71
2024/01/26 05:20:52;;;;;;;;;8.50;5.50;;;;;-143.90;100.00;76793.38;4835201;28;102397;-71
2024/01/26 05:23:19;;;;;;;;;2.75;2.75;;;;;-143.90;100.00;76791.31;4848756;28;102466;-70
2024/01/26 05:25:45;;;;;;;;;6.25;3.25;;;;;-143.90;100.00;76797.53;4845386;28;102446;-71
2024/01/26 05:28:12;;;;;;;;;2.00;2.00;;;;;-143.90;100.00;76789.25;4847581;28;104376;-71
2024/01/26 05:30:38;;;;;;;;;7.50;3.50;;;;;-143.90;100.00;76793.38;4825958;28;102461;-72
2024/01/26 05:33:05;;;;;;;;;8.25;5.00;;;;;-143.90;100.00;76797.53;4836313;28;105261;-71
2024/01/26 05:35:32;;;;;;;;;6.00;5.00;;;;;-143.90;100.00;76793.38;4846939;28;105401;-71
2024/01/26 05:37:58;;;;;;;;;3.25;3.25;;;;;-143.90;100.00;76783.03;4843131;28;104190;-71
2024/01/26 05:40:25;;;;;;;;;9.00;6.50;;;;;-143.90;100.00;76787.19;4843703;28;102140;-72
2024/01/26 05:42:52;;;;;;;;;6.25;6.00;;;;;-143.90;100.00;76793.38;4834215;28;102404;-72
2024/01/26 05:45:19;;;;;;;;;5.75;5.50;;;;;-143.90;100.00;76799.59;4851067;28;103574;-71
2024/01/26 05:47:47;;;;;;;;;7.00;4.50;;;;;-143.90;100.00;76793.38;4845072;28;104148;-71
2024/01/26 05:50:17;;;;;;;;;7.00;5.00;;;;;-143.90;100.00;76801.66;4824372;28;102516;-71
2024/01/26 05:52:44;;;;;;;;;8.50;6.00;;;;;-143.90;100.00;76801.66;4832874;28;102355;-71
2024/01/26 05:55:11;;;;;;;;;10.25;5.00;;;;;-143.90;100.00;76793.38;4811356;28;104692;-72
2024/01/26 05:57:37;;;;;;;;;11.00;7.00;;;;;-143.90;100.00;76807.88;4829639;28;104276;-71
2024/01/26 06:00:06;;;;;;;;;6.00;1.00;;;;;-143.90;100.00;76807.88;4834998;28;104863;-71
2024/01/26 06:02:33;;;;;;;;;14.75;11.00;;;;;-143.90;100.00;76812.00;4831099;28;102218;-71
2024/01/26 06:04:59;;;;;;;;;7.00;5.00;;;;;-143.90;100.00;76814.06;4829711;28;102366;-71
2024/01/26 06:07:26;;;;;;;;;13.75;10.00;;;;;-143.90;100.00;76816.13;4828481;28;104039;-72
2024/01/26 06:09:53;;;;;;;;;11.25;9.75;;;;;-143.90;100.00;76814.06;4831840;28;102601;-71
2024/01/26 06:12:19;;;;;;;;;11.00;7.00;;;;;-143.90;100.00;76822.34;4846343;28;102377;-71
2024/01/26 06:14:46;;;;;;;;;7.50;6.00;;;;;-143.90;100.00;76816.13;4813548;28;102512;-73
2024/01/26 06:17:13;;;;;;;;;11.75;9.00;;;;;-143.90;100.00;76824.41;4832597;28;104216;-72
2024/01/26 06:19:39;;;;;;;;;11.50;6.75;;;;;-143.90;100.00;76828.53;4833259;28;102190;-72
2024/01/26 06:22:06;;;;;;;;;10.25;9.00;;;;;-143.90;100.00;76818.22;4814752;28;102221;-71
2024/01/26 06:24:33;;;;;;;;;9.00;6.25;;;;;-143.90;100.00;76822.34;4832359;28;102238;-72
2024/01/26 06:26:59;;;;;;;;;5.50;4.25;;;;;-143.90;100.00;76828.53;4832028;28;104132;-71
2024/01/26 06:29:26;;;;;;;;;6.00;5.50;;;;;-143.90;100.00;76826.47;4835768;28;102426;-71
2024/01/26 06:31:53;;;;;;;;;9.25;4.00;;;;;-143.90;100.00;76834.75;4831236;28;101957;-71
2024/01/26 06:34:20;;;;;;;;;5.50;3.25;;;;;-143.90;100.00;76834.75;4823450;28;102390;-72
2024/01/26 06:36:47;;;;;;;;;5.50;4.00;;;;;-143.90;100.00;76828.53;4826236;28;110168;-71
2024/01/26 06:39:13;;;;;;;;;9.50;5.00;;;;;-143.90;100.00;76830.63;4826599;28;102089;-72
2024/01/26 06:41:41;;;;;;;;;7.50;7.50;;;;;-143.90;100.00;76832.69;4838027;28;102573;-71
2024/01/26 06:44:08;;;;;;;;;6.25;6.00;;;;;-143.90;100.00;76840.97;4834250;28;102240;-72
2024/01/26 06:46:34;;;;;;;;;10.00;9.00;;;;;-143.90;100.00;76838.88;4829349;28;104196;-72
2024/01/26 06:49:02;;;;;;;;;9.50;7.00;;;;;-143.90;100.00;76838.88;4828022;28;105136;-71
2024/01/26 06:51:29;;;;;;;;;8.50;6.50;;;;;-143.90;100.00;76838.88;4846396;28;103125;-71
2024/01/26 06:53:56;;;;;;;;;10.00;6.00;;;;;-143.90;100.00;76834.75;4845673;28;102512;-71
2024/01/26 06:56:23;;;;;;;;;10.25;6.75;;;;;-143.90;100.00;76838.88;4845111;28;103990;-71
2024/01/26 06:58:50;;;;;;;;;13.75;6.50;;;;;-143.90;100.00;76843.03;4844819;28;101994;-72
2024/01/26 07:01:16;;;;;;;;;8.50;6.00;;;;;-143.90;100.00;76845.09;4847850;28;102423;-71
2024/01/26 07:03:43;;;;;;;;;7.00;5.50;;;;;-143.90;100.00;76832.69;4848294;28;103032;-71
2024/01/26 07:06:10;;;;;;;;;9.25;6.25;;;;;-143.90;100.00;76832.69;4845124;28;104224;-72
2024/01/26 07:08:37;;;;;;;;;7.25;6.50;;;;;-143.90;100.00;76832.69;4852412;28;102047;-71
2024/01/26 07:11:09;;;;;;;;;13.25;9.00;;;;;-143.90;100.00;76832.69;4839117;28;101972;-70
2024/01/26 07:13:35;;;;;;;;;13.00;11.00;;;;;-143.90;100.00;76838.88;4851140;28;103245;-71
2024/01/26 07:16:02;;;;;;;;;18.00;13.75;;;;;-143.90;100.00;76836.81;4849385;28;104279;-71
2024/01/26 07:18:29;;;;;;;;;17.25;14.75;;;;;-143.90;100.00;76830.63;4850393;28;102203;-72
2024/01/26 07:20:56;;;;;;;;;22.75;17.50;;;;;-143.90;100.00;76832.69;4832215;28;102332;-71
2024/01/26 07:23:22;;;;;;;;;25.75;18.25;;;;;-143.90;100.00;76834.75;4851224;28;101994;-71
2024/01/26 07:25:49;;;;;;;;;30.33;24.67;;;;;-143.90;100.00;76838.88;4844237;28;107044;-71
2024/01/26 07:28:16;;;;;;;;;36.67;31.00;;;;;-143.90;100.00;76847.16;4834979;28;102844;-72
2024/01/26 07:30:42;;;;;;;;;44.67;33.33;;;;;-143.90;100.00;76840.97;4848711;28;102508;-71
2024/01/26 07:33:09;;;;;;;;;25.00;24.00;;;;;-143.90;100.00;76834.75;4840857;28;102251;-71
2024/01/26 07:35:36;;;;;;;;;39.00;29.00;;;;;-143.90;100.00;76834.75;4847521;28;104281;-71
2024/01/26 07:38:03;;;;;;;;;35.50;29.25;;;;;-143.90;100.00;76822.34;4852041;28;102015;-71
2024/01/26 07:40:29;;;;;;;;;24.00;19.00;;;;;-143.90;100.00;76814.06;4850603;28;104059;-71
2024/01/26 07:42:56;;;;;;;;;30.25;23.75;;;;;-143.90;100.00;76822.34;4837928;28;102596;-71
2024/01/26 07:45:23;;;;;;;;;23.75;19.75;;;;;-143.90;100.00;76818.22;4849795;28;103486;-71
2024/01/26 07:47:50;;;;;;;;;28.75;20.25;;;;;-143.90;100.00;76816.13;4853186;28;101999;-71
2024/01/26 07:50:17;;;;;;;;;25.00;21.25;;;;;-143.90;100.00;76822.34;4843628;28;102140;-71
2024/01/26 07:52:44;;;;;;;;;26.75;22.00;;;;;-143.90;100.00;76818.22;4815766;28;102080;-71
2024/01/26 07:55:10;;;;;;;;;28.75;23.50;;;;;-143.90;100.00;76820.28;4807001;29;104377;-71
2024/01/26 07:57:37;;;;;;;;;25.25;22.00;;;;;-143.90;100.00;76824.41;4829816;28;102337;-71
2024/01/26 08:00:05;;;;;;;;;27.00;23.50;;;;;-143.90;100.00;76830.63;4809994;28;103554;-69
2024/01/26 08:02:32;;;;;;;;;35.25;26.25;;;;;-143.90;100.00;76820.28;4819480;28;102282;-72
2024/01/26 08:04:59;;;;;;;;;27.00;25.50;;;;;-143.90;100.00;76820.28;4820047;28;104447;-71
2024/01/26 08:07:26;;;;;;;;;27.50;26.00;;;;;-143.90;100.00;76818.22;4829322;28;102259;-71
2024/01/26 08:09:52;;;;;;;;;35.67;27.00;;;;;-143.90;100.00;76812.00;4830991;28;101983;-72
2024/01/26 08:12:20;;;;;;;;;25.50;23.00;;;;;-143.90;100.00;76795.47;4832130;28;102408;-71
2024/01/26 08:15:06;;;;;;;;;29.75;26.25;;;;;-143.90;100.00;76793.38;4815356;28;108800;-71
2024/01/26 08:17:33;;;;;;;;;27.75;23.25;;;;;-143.90;100.00;76785.13;4828749;28;101979;-71
2024/01/26 08:20:03;;;;;;;;;30.75;26.50;;;;;-143.90;100.00;76787.19;4829781;28;102355;-72
2024/01/26 08:22:31;;;;;;;;;31.67;26.67;;;;;-143.90;100.00;76787.19;4830656;28;102391;-71
2024/01/26 08:24:58;;;;;;;;;27.75;23.75;;;;;-143.90;100.00;76766.50;4802808;29;104768;-72
2024/01/26 08:27:25;;;;;;;;;30.75;26.00;;;;;-143.90;100.00;76789.25;4828258;28;102616;-72
2024/01/26 08:29:52;;;;;;;;;23.50;23.00;;;;;-143.90;100.00;76801.66;4830138;28;102354;-71
2024/01/26 08:32:19;;;;;;;;;41.00;27.75;;;;;-143.90;100.00;76797.53;4829357;28;103574;-72
2024/01/26 08:34:46;;;;;;;;;27.25;23.75;;;;;-143.90;100.00;76780.97;4825313;28;104192;-72
2024/01/26 08:37:13;;;;;;;;;27.75;22.75;;;;;-143.90;100.00;76780.97;4824247;28;102427;-71
2024/01/26 08:39:44;;;;;;;;;22.00;19.25;;;;;-143.90;100.00;76799.59;4830473;28;102916;-71
2024/01/26 08:42:11;;;;;;;;;21.25;18.75;;;;;-143.90;100.00;76789.25;4829254;28;102626;-71
2024/01/26 08:44:38;;;;;;;;;23.25;19.00;;;;;-143.90;100.00;76785.13;4829898;28;104533;-72
2024/01/26 08:47:06;;;;;;;;;18.25;16.75;;;;;-143.90;100.00;76787.19;4810577;28;104503;-71
2024/01/26 08:49:32;;;;;;;;;17.00;12.00;;;;;-143.90;100.00;76780.97;4830145;28;102023;-71
2024/01/26 08:51:59;;;;;;;;;18.25;10.50;;;;;-143.90;100.00;76774.78;4848606;28;103683;-71
2024/01/26 08:54:26;;;;;;;;;18.50;15.75;;;;;-143.90;100.00;76789.25;4848424;28;104038;-71
2024/01/26 08:56:53;;;;;;;;;15.50;11.50;;;;;-143.90;100.00;76791.31;4839866;28;103181;-72
2024/01/26 08:59:19;;;;;;;;;8.75;8.00;;;;;-143.90;100.00;76780.97;4845729;28;102168;-70
2024/01/26 09:01:46;;;;;;;;;19.75;14.50;;;;;-143.90;100.00;76778.91;4848031;28;102532;-70
2024/01/26 09:04:13;;;;;;;;;16.00;12.50;;;;;-143.90;100.00;76772.72;4845698;28;104380;-71
2024/01/26 09:06:40;;;;;;;;;13.25;9.50;;;;;-143.90;100.00;76760.28;4846609;28;102326;-71
2024/01/26 09:09:08;;;;;;;;;18.50;13.50;;;;;-143.90;100.00;76745.81;4835446;28;102956;-72
2024/01/26 09:11:35;;;;;;;;;18.75;15.00;;;;;-143.90;100.00;76741.69;4848831;28;102501;-71
2024/01/26 09:14:02;;;;;;;;;19.00;16.75;;;;;-143.90;100.00;76747.88;4847120;28;103983;-71
2024/01/26 09:16:28;;;;;;;;;17.50;15.50;;;;;-143.90;100.00;76727.22;4847393;28;102273;-71
2024/01/26 09:18:55;;;;;;;;;18.50;16.00;;;;;-143.90;100.00;76727.22;4834445;28;102140;-72
2024/01/26 09:21:22;;;;;;;;;24.75;20.50;;;;;-143.90;100.00;76727.22;4849683;28;103135;-71
2024/01/26 09:23:48;;;;;;;;;24.00;20.00;;;;;-143.90;100.00;76721.00;4846160;28;104053;-71
2024/01/26 09:26:15;;;;;;;;;26.75;19.75;;;;;-143.90;100.00;76704.47;4847435;28;104747;-71
2024/01/26 09:28:42;;;;;;;;;19.75;18.75;;;;;-143.90;100.00;76689.97;4843892;28;102618;-71
2024/01/26 09:31:08;;;;;;;;;29.75;22.50;;;;;-143.90;100.00;76687.91;4828954;28;102274;-72
2024/01/26 09:33:35;;;;;;;;;27.25;22.75;;;;;-143.90;100.00;76673.44;4847008;28;104154;-71
2024/01/26 09:36:02;;;;;;;;;27.25;25.00;;;;;-143.90;100.00;76679.63;4845588;28;102736;-71
2024/01/26 09:38:29;;;;;;;;;25.25;22.25;;;;;-143.90;100.00;76673.44;4844194;28;105085;-71
2024/01/26 09:40:56;;;;;;;;;20.00;19.00;;;;;-143.90;100.00;76679.63;4837352;28;103364;-71
2024/01/26 09:43:23;;;;;;;;;26.25;25.00;;;;;-143.90;100.00;76687.91;4847724;28;109210;-70
2024/01/26 09:45:53;;;;;;;;;24.50;22.50;;;;;-143.90;100.00;76692.03;4846810;28;102518;-71
2024/01/26 09:48:20;;;;;;;;;21.75;19.50;;;;;-143.90;100.00;76673.44;4847694;28;102606;-71
2024/01/26 09:50:53;;;;;;;;;21.00;18.00;;;;;-143.90;100.00;76652.75;4843197;28;102478;-71
2024/01/26 09:53:20;;;;;;;;;21.75;21.00;;;;;-143.90;100.00;76652.75;4842993;28;104963;-71
2024/01/26 09:55:47;;;;;;;;;27.75;21.00;;;;;-143.90;100.00;76648.63;4847444;28;102073;-72
2024/01/26 09:58:14;;;;;;;;;20.50;16.75;;;;;-143.90;100.00;76630.00;4847453;28;102346;-70
2024/01/26 10:00:42;;;;;;;;;24.75;21.00;;;;;-143.90;100.00;76650.69;4847619;28;102524;-70
2024/01/26 10:03:09;;;;;;;;;22.25;19.00;;;;;-143.90;100.00;76648.63;4832792;28;104339;-70
2024/01/26 10:05:37;;;;;;;;;24.00;19.00;;;;;-143.90;100.00;76640.34;4843447;28;102922;-72
2024/01/26 10:08:08;;;;;;;;;23.75;20.00;;;;;-143.90;100.00;76634.13;4844570;28;102229;-70
2024/01/26 10:10:35;;;;;;;;;25.50;22.25;;;;;-143.90;100.00;76632.06;4848144;28;102226;-71
2024/01/26 10:13:06;;;;;;;;;22.50;20.25;;;;;-143.90;100.00;76636.22;4835144;28;104220;-72
2024/01/26 10:15:33;;;;;;;;;21.00;21.00;;;;;-143.90;100.00;76611.38;4845058;28;102189;-71
2024/01/26 10:18:01;;;;;;;;;24.50;19.75;;;;;-143.90;100.00;76611.38;4841544;28;102038;-72
2024/01/26 10:20:28;;;;;;;;;16.75;13.25;;;;;-143.90;100.00;76582.44;4848447;28;102354;-71
2024/01/26 10:22:56;;;;;;;;;15.00;13.50;;;;;-143.90;100.00;76590.72;4841488;28;103990;-71
2024/01/26 10:25:22;;;;;;;;;19.00;19.00;;;;;-143.90;100.00;76609.31;4847938;28;104717;-72
2024/01/26 10:27:49;;;;;;;;;20.00;17.50;;;;;-143.90;100.00;76615.53;4847645;28;101981;-71
2024/01/26 10:30:19;;;;;;;;;22.00;17.25;;;;;-143.90;100.00;76623.78;4847762;28;102256;-71
2024/01/26 10:32:47;;;;;;;;;19.50;16.00;;;;;-143.90;100.00;76596.91;4843694;28;103984;-72
2024/01/26 10:35:16;;;;;;;;;26.75;18.50;;;;;-143.90;100.00;76594.84;4841476;28;102245;-71
2024/01/26 10:37:45;;;;;;;;;23.00;19.50;;;;;-143.90;100.00;76582.44;4820476;28;102282;-71
2024/01/26 10:40:16;;;;;;;;;13.75;12.00;;;;;-143.90;100.00;76547.28;4841558;28;102245;-71
2024/01/26 10:42:46;;;;;;;;;13.50;11.75;;;;;-143.90;100.00;76539.00;4848900;28;103986;-71
2024/01/26 10:45:13;;;;;;;;;15.25;12.00;;;;;-143.90;100.00;76561.75;4842028;28;102021;-71
2024/01/26 10:47:41;;;;;;;;;12.00;11.50;;;;;-143.90;100.00;76545.22;4849156;28;102488;-72
2024/01/26 10:50:10;;;;;;;;;12.25;12.00;;;;;-143.90;100.00;76536.94;4849283;28;102040;-71
2024/01/26 10:52:38;;;;;;;;;15.50;11.00;;;;;-143.90;100.00;76557.63;4848297;28;103991;-72
2024/01/26 10:55:06;;;;;;;;;10.25;9.00;;;;;-143.90;100.00;76563.81;4836114;28;101983;-72